createdAt,value
2022-10-30T00:01:36.724Z,100.00
2022-10-30T00:04:03.422Z,100.00
2022-10-30T00:06:29.964Z,100.00
2022-10-30T00:08:56.515Z,100.00
2022-10-30T00:11:23.104Z,100.00
2022-10-30T00:13:50.084Z,100.00
2022-10-30T00:16:16.670Z,100.00
2022-10-30T00:18:43.411Z,100.00
2022-10-30T00:21:12.783Z,100.00
2022-10-30T00:23:40.939Z,100.00
2022-10-30T00:26:08.114Z,100.00
2022-10-30T00:28:35.203Z,100.00
2022-10-30T00:31:03.491Z,100.00
2022-10-30T00:33:30.212Z,100.00
2022-10-30T00:35:56.877Z,100.00
2022-10-30T00:38:23.495Z,100.00
2022-10-30T00:40:50.143Z,100.00
2022-10-30T00:43:37.678Z,100.00
2022-10-30T00:46:20.870Z,100.00
2022-10-30T00:48:58.063Z,100.00
2022-10-30T00:51:25.452Z,100.00
2022-10-30T00:53:53.390Z,100.00
2022-10-30T00:56:22.011Z,100.00
2022-10-30T00:58:58.260Z,100.00
2022-10-30T01:01:28.724Z,100.00
2022-10-30T01:04:00.534Z,100.00
2022-10-30T01:06:30.179Z,100.00
2022-10-30T01:08:59.835Z,100.00
2022-10-30T01:11:27.116Z,100.00
2022-10-30T01:13:57.727Z,100.00
2022-10-30T01:16:56.141Z,100.00
2022-10-30T01:19:56.877Z,100.00
2022-10-30T01:22:57.119Z,100.00
2022-10-30T01:25:35.723Z,100.00
2022-10-30T01:28:14.387Z,100.00
2022-10-30T01:31:04.461Z,100.00
2022-10-30T01:34:12.205Z,100.00
2022-10-30T01:36:46.074Z,100.00
2022-10-30T01:39:17.783Z,100.00
2022-10-30T01:41:45.533Z,100.00
2022-10-30T01:44:25.335Z,100.00
2022-10-30T01:47:23.005Z,100.00
2022-10-30T01:50:04.476Z,100.00
2022-10-30T01:52:47.561Z,100.00
2022-10-30T01:55:29.724Z,100.00
2022-10-30T01:58:14.839Z,100.00
2022-10-30T02:00:45.665Z,100.00
2022-10-30T02:03:12.513Z,100.00
2022-10-30T02:05:43.860Z,100.00
2022-10-30T02:08:10.719Z,100.00
2022-10-30T02:10:38.465Z,100.00
2022-10-30T02:13:05.424Z,100.00
2022-10-30T02:15:32.378Z,100.00
2022-10-30T02:18:00.914Z,100.00
2022-10-30T02:20:28.446Z,100.00
2022-10-30T02:22:59.012Z,100.00
2022-10-30T02:25:26.351Z,100.00
2022-10-30T02:27:53.273Z,100.00
2022-10-30T02:30:19.878Z,100.00
2022-10-30T02:32:47.125Z,100.00
2022-10-30T02:35:13.852Z,100.00
2022-10-30T02:37:40.425Z,100.00
2022-10-30T02:40:21.923Z,100.00
2022-10-30T02:42:53.220Z,100.00
2022-10-30T02:45:20.091Z,100.00
2022-10-30T02:47:47.080Z,100.00
2022-10-30T02:50:13.774Z,100.00
2022-10-30T02:52:40.370Z,100.00
2022-10-30T02:55:07.146Z,100.00
2022-10-30T02:57:33.857Z,100.00
2022-10-30T03:00:00.451Z,100.00
2022-10-30T03:02:27.137Z,100.00
2022-10-30T03:04:53.682Z,100.00
2022-10-30T03:07:20.425Z,100.00
2022-10-30T03:09:48.452Z,100.00
2022-10-30T03:12:15.138Z,100.00
2022-10-30T03:14:41.776Z,100.00
2022-10-30T03:17:08.353Z,100.00
2022-10-30T03:19:35.686Z,100.00
2022-10-30T03:22:02.290Z,100.00
2022-10-30T03:24:28.836Z,100.00
2022-10-30T03:26:55.512Z,100.00
2022-10-30T03:29:22.113Z,100.00
2022-10-30T03:31:48.644Z,100.00
2022-10-30T03:34:15.230Z,100.00
2022-10-30T03:36:42.123Z,100.00
2022-10-30T03:39:08.909Z,100.00
2022-10-30T03:41:35.628Z,100.00
2022-10-30T03:44:02.165Z,100.00
2022-10-30T03:46:30.809Z,100.00
2022-10-30T03:48:57.395Z,100.00
2022-10-30T03:51:23.955Z,100.00
2022-10-30T03:53:50.611Z,100.00
2022-10-30T03:56:17.226Z,100.00
2022-10-30T03:58:43.768Z,100.00
2022-10-30T04:01:10.957Z,100.00
2022-10-30T04:03:37.648Z,100.00
2022-10-30T04:06:04.339Z,100.00
2022-10-30T04:08:30.968Z,100.00
2022-10-30T04:10:57.622Z,100.00
2022-10-30T04:13:24.323Z,100.00
2022-10-30T04:15:56.266Z,100.00
2022-10-30T04:18:25.322Z,100.00
2022-10-30T04:20:52.276Z,100.00
2022-10-30T04:23:20.840Z,100.00
2022-10-30T04:25:47.999Z,100.00
2022-10-30T04:28:14.897Z,100.00
2022-10-30T04:30:41.487Z,100.00
2022-10-30T04:33:11.792Z,100.00
2022-10-30T04:35:38.796Z,100.00
2022-10-30T04:38:07.799Z,100.00
2022-10-30T04:40:36.855Z,100.00
2022-10-30T04:43:04.380Z,100.00
2022-10-30T04:45:32.252Z,100.00
2022-10-30T04:48:16.259Z,100.00
2022-10-30T04:50:43.796Z,100.00
2022-10-30T04:53:17.224Z,100.00
2022-10-30T04:55:44.623Z,100.00
2022-10-30T04:58:12.836Z,100.00
2022-10-30T05:00:39.809Z,100.00
2022-10-30T05:03:06.434Z,100.00
2022-10-30T05:05:33.049Z,100.00
2022-10-30T05:08:00.134Z,100.00
2022-10-30T05:10:27.154Z,100.00
2022-10-30T05:12:54.416Z,100.00
2022-10-30T05:15:21.514Z,100.00
2022-10-30T05:17:51.787Z,100.00
2022-10-30T05:20:19.080Z,100.00
2022-10-30T05:22:45.960Z,100.00
2022-10-30T05:25:12.476Z,100.00
2022-10-30T05:27:39.029Z,100.00
2022-10-30T05:30:06.165Z,100.00
2022-10-30T05:32:32.806Z,100.00
2022-10-30T05:34:59.355Z,100.00
2022-10-30T05:37:26.041Z,100.00
2022-10-30T05:39:52.661Z,100.00
2022-10-30T05:42:19.226Z,100.00
2022-10-30T05:45:02.287Z,100.00
2022-10-30T05:47:29.281Z,99.22
2022-10-30T05:49:55.941Z,94.86
2022-10-30T05:52:22.520Z,89.56
2022-10-30T05:54:49.071Z,82.91
2022-10-30T05:57:15.624Z,83.59
2022-10-30T05:59:42.225Z,82.94
2022-10-30T06:02:09.006Z,80.02
2022-10-30T06:04:35.707Z,82.32
2022-10-30T06:07:02.242Z,78.39
2022-10-30T06:09:28.784Z,82.94
2022-10-30T06:11:55.892Z,86.05
2022-10-30T06:14:22.448Z,89.06
2022-10-30T06:16:49.057Z,89.93
2022-10-30T06:19:18.948Z,90.91
2022-10-30T06:21:46.157Z,93.41
2022-10-30T06:24:13.233Z,94.81
2022-10-30T06:26:40.518Z,100.00
2022-10-30T06:29:07.294Z,100.00
2022-10-30T06:31:33.890Z,100.00
2022-10-30T06:34:00.581Z,100.00
2022-10-30T06:36:27.223Z,100.00
2022-10-30T06:38:53.800Z,100.00
2022-10-30T06:41:23.349Z,100.00
2022-10-30T06:43:52.405Z,100.00
2022-10-30T06:46:19.006Z,100.00
2022-10-30T06:48:45.554Z,100.00
2022-10-30T06:51:15.773Z,100.00
2022-10-30T06:53:42.735Z,100.00
2022-10-30T06:56:09.949Z,100.00
2022-10-30T06:58:39.182Z,100.00
2022-10-30T07:01:08.980Z,100.00
2022-10-30T07:03:35.624Z,100.00
2022-10-30T07:06:02.427Z,100.00
2022-10-30T07:08:29.031Z,100.00
2022-10-30T07:10:58.324Z,100.00
2022-10-30T07:13:24.968Z,100.00
2022-10-30T07:15:51.619Z,100.00
2022-10-30T07:18:18.163Z,100.00
2022-10-30T07:20:44.760Z,100.00
2022-10-30T07:23:11.353Z,100.00
2022-10-30T07:25:37.981Z,100.00
2022-10-30T07:28:04.948Z,100.00
2022-10-30T07:30:31.603Z,100.00
2022-10-30T07:33:00.359Z,100.00
2022-10-30T07:35:28.101Z,100.00
2022-10-30T07:37:55.177Z,100.00
2022-10-30T07:40:23.509Z,100.00
2022-10-30T07:42:55.334Z,100.00
2022-10-30T07:45:22.380Z,99.52
2022-10-30T07:47:48.993Z,99.11
2022-10-30T07:50:15.690Z,97.29
2022-10-30T07:52:42.252Z,94.06
2022-10-30T07:55:09.265Z,95.55
2022-10-30T07:57:40.373Z,93.93
2022-10-30T08:00:09.639Z,93.20
2022-10-30T08:02:36.376Z,92.47
2022-10-30T08:05:04.136Z,91.13
2022-10-30T08:07:32.004Z,90.07
2022-10-30T08:09:58.953Z,90.59
2022-10-30T08:12:26.536Z,90.51
2022-10-30T08:14:53.754Z,90.01
2022-10-30T08:17:20.963Z,85.97
2022-10-30T08:19:47.604Z,85.68
2022-10-30T08:22:14.212Z,85.50
2022-10-30T08:24:40.870Z,85.50
2022-10-30T08:27:07.428Z,84.20
2022-10-30T08:29:34.952Z,84.96
2022-10-30T08:32:01.711Z,82.98
2022-10-30T08:34:31.628Z,82.72
2022-10-30T08:36:58.444Z,81.64
2022-10-30T08:39:25.111Z,83.07
2022-10-30T08:41:51.813Z,82.21
2022-10-30T08:44:18.706Z,78.45
2022-10-30T08:46:45.258Z,77.21
2022-10-30T08:49:11.851Z,78.01
2022-10-30T08:51:38.442Z,76.02
2022-10-30T08:54:05.043Z,75.84
2022-10-30T08:56:31.631Z,75.88
2022-10-30T08:58:58.321Z,73.69
2022-10-30T09:01:24.978Z,72.90
2022-10-30T09:03:51.650Z,71.44
2022-10-30T09:06:18.369Z,72.32
2022-10-30T09:08:46.251Z,72.13
2022-10-30T09:11:12.864Z,70.28
2022-10-30T09:13:39.481Z,69.03
2022-10-30T09:16:06.586Z,67.17
2022-10-30T09:18:33.382Z,66.62
2022-10-30T09:21:03.118Z,66.46
2022-10-30T09:23:31.579Z,65.20
2022-10-30T09:25:58.254Z,67.38
2022-10-30T09:28:24.969Z,64.90
2022-10-30T09:30:56.284Z,62.53
2022-10-30T09:33:23.856Z,61.71
2022-10-30T09:35:50.601Z,60.68
2022-10-30T09:38:17.370Z,60.30
2022-10-30T09:40:43.902Z,59.42
2022-10-30T09:43:34.427Z,59.94
2022-10-30T09:46:39.469Z,59.00
2022-10-30T09:49:53.712Z,58.92
2022-10-30T09:52:29.599Z,58.27
2022-10-30T09:55:11.419Z,58.91
2022-10-30T09:57:59.952Z,57.32
2022-10-30T10:00:44.364Z,56.81
2022-10-30T10:03:34.656Z,56.23
2022-10-30T10:06:02.862Z,56.87
2022-10-30T10:08:41.095Z,55.91
2022-10-30T10:11:16.919Z,56.62
2022-10-30T10:14:08.589Z,56.24
2022-10-30T10:16:39.471Z,55.11
2022-10-30T10:19:12.602Z,54.79
2022-10-30T10:21:53.472Z,53.54
2022-10-30T10:24:27.198Z,52.08
2022-10-30T10:27:27.850Z,51.20
2022-10-30T10:29:57.451Z,50.65
2022-10-30T10:32:45.477Z,49.99
2022-10-30T10:35:30.726Z,48.19
2022-10-30T10:38:54.758Z,48.07
2022-10-30T10:41:52.624Z,47.49
2022-10-30T10:44:46.552Z,46.84
2022-10-30T10:47:36.373Z,46.79
2022-10-30T10:50:25.872Z,45.87
2022-10-30T10:53:11.454Z,45.97
2022-10-30T10:55:39.458Z,45.20
2022-10-30T10:58:33.705Z,44.80
2022-10-30T11:01:00.776Z,44.84
2022-10-30T11:03:42.653Z,44.14
2022-10-30T11:06:21.221Z,44.26
2022-10-30T11:08:49.322Z,44.20
2022-10-30T11:11:15.990Z,44.46
2022-10-30T11:13:44.542Z,42.92
2022-10-30T11:16:37.974Z,43.20
2022-10-30T11:19:09.163Z,43.07
2022-10-30T11:21:42.353Z,42.04
2022-10-30T11:24:28.309Z,41.62
2022-10-30T11:26:57.499Z,42.75
2022-10-30T11:29:32.138Z,41.44
2022-10-30T11:32:04.815Z,41.55
2022-10-30T11:34:37.996Z,39.85
2022-10-30T11:37:05.176Z,40.20
2022-10-30T11:39:35.572Z,39.97
2022-10-30T11:42:04.500Z,39.22
2022-10-30T11:44:47.547Z,38.67
2022-10-30T11:47:16.669Z,38.37
2022-10-30T11:49:55.259Z,38.24
2022-10-30T11:52:23.649Z,38.06
2022-10-30T11:55:09.263Z,37.92
2022-10-30T11:57:44.901Z,38.04
2022-10-30T12:00:26.665Z,38.14
2022-10-30T12:03:00.957Z,37.45
2022-10-30T12:05:30.702Z,37.10
2022-10-30T12:08:06.480Z,36.94
2022-10-30T12:10:38.726Z,37.59
2022-10-30T12:13:06.540Z,36.92
2022-10-30T12:15:37.415Z,36.77
2022-10-30T12:18:17.382Z,36.22
2022-10-30T12:20:47.887Z,35.85
2022-10-30T12:23:22.169Z,35.88
2022-10-30T12:25:50.843Z,35.69
2022-10-30T12:28:31.744Z,35.61
2022-10-30T12:31:04.931Z,35.01
2022-10-30T12:33:42.124Z,34.85
2022-10-30T12:36:22.939Z,34.75
2022-10-30T12:38:54.552Z,34.24
2022-10-30T12:41:28.795Z,34.45
2022-10-30T12:44:16.386Z,34.20
2022-10-30T12:46:47.175Z,34.35
2022-10-30T12:49:31.064Z,33.83
2022-10-30T12:52:36.066Z,33.57
2022-10-30T12:55:21.543Z,32.47
2022-10-30T12:58:17.206Z,31.45
2022-10-30T13:01:06.763Z,31.83
2022-10-30T13:03:39.864Z,31.93
2022-10-30T13:06:31.685Z,32.78
2022-10-30T13:09:48.499Z,31.99
2022-10-30T13:12:38.017Z,32.13
2022-10-30T13:15:36.971Z,33.53
2022-10-30T13:18:21.642Z,33.63
2022-10-30T13:21:11.029Z,33.77
2022-10-30T13:24:12.079Z,34.00
2022-10-30T13:26:46.521Z,35.19
2022-10-30T13:29:44.481Z,35.28
2022-10-30T13:32:42.075Z,35.85
2022-10-30T13:35:45.304Z,36.36
2022-10-30T13:38:58.317Z,36.19
2022-10-30T13:41:46.305Z,36.96
2022-10-30T13:44:24.482Z,37.48
2022-10-30T13:47:06.285Z,37.55
2022-10-30T13:49:41.830Z,37.73
2022-10-30T13:52:11.647Z,38.17
2022-10-30T13:54:48.504Z,39.33
2022-10-30T13:57:26.475Z,38.25
2022-10-30T14:00:01.187Z,38.20
2022-10-30T14:02:27.930Z,38.87
2022-10-30T14:05:26.997Z,39.51
2022-10-30T14:08:08.791Z,39.72
2022-10-30T14:10:56.025Z,39.98
2022-10-30T14:13:55.333Z,40.33
2022-10-30T14:16:44.242Z,40.81
2022-10-30T14:19:15.942Z,40.79
2022-10-30T14:21:52.038Z,40.54
2022-10-30T14:24:23.483Z,40.90
2022-10-30T14:27:14.934Z,41.13
2022-10-30T14:29:50.722Z,41.83
2022-10-30T14:32:19.831Z,42.08
2022-10-30T14:34:58.309Z,42.21
2022-10-30T14:37:27.452Z,42.27
2022-10-30T14:39:55.667Z,42.62
2022-10-30T14:42:30.726Z,42.99
2022-10-30T14:45:33.025Z,43.30
2022-10-30T14:48:26.805Z,43.59
2022-10-30T14:51:13.125Z,43.91
2022-10-30T14:53:42.593Z,43.94
2022-10-30T14:58:42.060Z,44.39
2022-10-30T15:01:40.977Z,44.58
2022-10-30T15:04:24.304Z,44.79
2022-10-30T15:06:53.752Z,45.02
2022-10-30T15:09:32.426Z,45.13
2022-10-30T15:12:36.575Z,45.53
2022-10-30T15:15:06.397Z,46.19
2022-10-30T15:17:39.164Z,46.40
2022-10-30T15:20:14.521Z,46.91
2022-10-30T15:22:41.601Z,47.51
2022-10-30T15:25:20.781Z,47.56
2022-10-30T15:27:51.624Z,47.70
2022-10-30T15:30:21.375Z,47.76
2022-10-30T15:32:48.169Z,47.89
2022-10-30T15:35:26.616Z,48.66
2022-10-30T15:38:06.897Z,48.60
2022-10-30T15:40:38.421Z,48.88
2022-10-30T15:43:12.817Z,49.38
2022-10-30T15:45:42.532Z,49.89
2022-10-30T15:48:26.266Z,50.24
2022-10-30T15:51:17.727Z,51.00
2022-10-30T15:53:46.537Z,51.18
2022-10-30T15:56:23.489Z,51.75
2022-10-30T15:59:23.614Z,52.35
2022-10-30T16:01:53.257Z,52.72
2022-10-30T16:04:23.190Z,53.66
2022-10-30T16:06:59.034Z,54.03
2022-10-30T16:09:27.220Z,54.63
2022-10-30T16:11:58.565Z,54.73
2022-10-30T16:14:28.408Z,55.13
2022-10-30T16:16:59.087Z,55.33
2022-10-30T16:19:29.345Z,55.42
2022-10-30T16:21:57.715Z,55.31
2022-10-30T16:24:34.956Z,55.00
2022-10-30T16:27:16.036Z,55.71
2022-10-30T16:29:43.146Z,54.72
2022-10-30T16:32:16.159Z,55.05
2022-10-30T16:34:44.837Z,55.23
2022-10-30T16:37:22.520Z,55.56
2022-10-30T16:39:51.503Z,55.83
2022-10-30T16:42:23.934Z,55.97
2022-10-30T16:44:50.861Z,56.15
2022-10-30T16:47:17.450Z,56.05
2022-10-30T16:49:49.644Z,56.61
2022-10-30T16:52:17.271Z,56.50
2022-10-30T16:54:51.151Z,56.81
2022-10-30T16:57:32.645Z,56.94
2022-10-30T17:00:00.984Z,57.55
2022-10-30T17:02:31.164Z,58.50
2022-10-30T17:05:37.068Z,58.72
2022-10-30T17:08:05.712Z,59.42
2022-10-30T17:10:42.040Z,60.09
2022-10-30T17:13:36.783Z,60.21
2022-10-30T17:16:26.778Z,60.48
2022-10-30T17:19:01.975Z,61.29
2022-10-30T17:21:40.785Z,61.82
2022-10-30T17:24:20.350Z,61.10
2022-10-30T17:26:56.324Z,61.98
2022-10-30T17:29:45.185Z,61.32
2022-10-30T17:32:20.371Z,62.13
2022-10-30T17:34:48.345Z,61.78
2022-10-30T17:37:15.078Z,62.05
2022-10-30T17:39:41.677Z,61.71
2022-10-30T17:42:10.217Z,61.78
2022-10-30T17:44:36.919Z,61.73
2022-10-30T17:47:18.618Z,60.86
2022-10-30T17:49:46.245Z,60.55
2022-10-30T17:52:14.519Z,60.63
2022-10-30T17:54:42.211Z,60.88
2022-10-30T17:57:13.425Z,60.59
2022-10-30T17:59:40.931Z,60.12
2022-10-30T18:02:19.509Z,60.07
2022-10-30T18:04:47.559Z,59.74
2022-10-30T18:07:15.685Z,60.04
2022-10-30T18:09:42.835Z,59.95
2022-10-30T18:12:17.195Z,60.56
2022-10-30T18:14:45.566Z,60.68
2022-10-30T18:17:12.632Z,61.31
2022-10-30T18:19:39.387Z,61.60
2022-10-30T18:22:06.065Z,61.25
2022-10-30T18:24:32.654Z,61.74
2022-10-30T18:26:59.393Z,61.21
2022-10-30T18:29:25.990Z,61.08
2022-10-30T18:31:52.640Z,60.89
2022-10-30T18:34:22.231Z,61.10
2022-10-30T18:36:49.050Z,61.83
2022-10-30T18:39:15.842Z,61.46
2022-10-30T18:41:47.069Z,62.00
2022-10-30T18:44:18.091Z,62.25
2022-10-30T18:46:45.621Z,62.70
2022-10-30T18:49:12.697Z,63.12
2022-10-30T18:51:39.707Z,63.53
2022-10-30T18:54:15.087Z,63.71
2022-10-30T18:56:41.721Z,64.20
2022-10-30T18:59:08.333Z,65.40
2022-10-30T19:01:35.417Z,65.22
2022-10-30T19:04:03.092Z,65.80
2022-10-30T19:06:30.512Z,65.86
2022-10-30T19:08:57.149Z,66.85
2022-10-30T19:11:25.804Z,67.17
2022-10-30T19:13:53.870Z,67.34
2022-10-30T19:16:21.702Z,67.80
2022-10-30T19:18:48.861Z,67.92
2022-10-30T19:21:25.730Z,68.18
2022-10-30T19:23:53.933Z,68.28
2022-10-30T19:26:20.603Z,68.73
2022-10-30T19:28:47.298Z,69.37
2022-10-30T19:31:16.114Z,69.79
2022-10-30T19:33:42.966Z,70.38
2022-10-30T19:36:28.185Z,71.53
2022-10-30T19:38:55.035Z,72.11
2022-10-30T19:41:21.857Z,70.39
2022-10-30T19:43:48.657Z,70.17
2022-10-30T19:46:15.445Z,70.26
2022-10-30T19:48:58.988Z,70.82
2022-10-30T19:51:27.268Z,71.69
2022-10-30T19:53:54.103Z,70.97
2022-10-30T19:56:21.299Z,69.99
2022-10-30T19:58:47.929Z,68.70
2022-10-30T20:01:14.696Z,67.87
2022-10-30T20:03:41.449Z,67.27
2022-10-30T20:06:12.074Z,66.17
2022-10-30T20:08:38.695Z,66.02
2022-10-30T20:11:05.547Z,64.68
2022-10-30T20:13:33.456Z,63.58
2022-10-30T20:16:02.798Z,62.85
2022-10-30T20:18:31.975Z,62.24
2022-10-30T20:21:01.144Z,61.42
2022-10-30T20:23:28.561Z,60.68
2022-10-30T20:25:59.801Z,61.04
2022-10-30T20:28:31.548Z,60.80
2022-10-30T20:30:58.378Z,60.48
2022-10-30T20:33:26.028Z,60.38
2022-10-30T20:35:56.878Z,60.81
2022-10-30T20:38:29.385Z,60.29
2022-10-30T20:40:57.370Z,60.33
2022-10-30T20:43:35.591Z,61.05
2022-10-30T20:46:04.426Z,61.23
2022-10-30T20:48:31.157Z,61.91
2022-10-30T20:51:00.589Z,61.87
2022-10-30T20:53:28.040Z,61.90
2022-10-30T20:55:54.960Z,62.73
2022-10-30T20:58:21.922Z,62.29
2022-10-30T21:00:48.941Z,62.02
2022-10-30T21:03:15.789Z,61.51
2022-10-30T21:05:46.181Z,61.49
2022-10-30T21:08:14.427Z,62.35
2022-10-30T21:10:41.486Z,62.20
2022-10-30T21:13:09.815Z,61.59
2022-10-30T21:15:44.468Z,62.44
2022-10-30T21:18:15.579Z,62.15
2022-10-30T21:20:42.305Z,62.25
2022-10-30T21:23:09.249Z,62.75
2022-10-30T21:25:36.412Z,62.08
2022-10-30T21:28:03.549Z,62.43
2022-10-30T21:30:30.496Z,62.53
2022-10-30T21:32:59.186Z,62.11
2022-10-30T21:35:26.856Z,62.13
2022-10-30T21:37:53.461Z,61.86
2022-10-30T21:40:20.027Z,61.77
2022-10-30T21:42:49.766Z,61.52
2022-10-30T21:45:16.660Z,61.27
2022-10-30T21:47:43.236Z,61.20
2022-10-30T21:50:12.174Z,61.32
2022-10-30T21:52:39.660Z,60.90
2022-10-30T21:55:06.519Z,61.00
2022-10-30T21:57:33.157Z,61.35
2022-10-30T22:00:01.872Z,60.70
2022-10-30T22:02:32.702Z,60.82
2022-10-30T22:04:59.264Z,60.98
2022-10-30T22:07:25.846Z,61.10
2022-10-30T22:09:53.538Z,61.31
2022-10-30T22:12:20.146Z,61.86
2022-10-30T22:14:46.708Z,61.99
2022-10-30T22:17:13.318Z,62.35
2022-10-30T22:19:39.958Z,61.43
2022-10-30T22:22:07.042Z,61.66
2022-10-30T22:24:33.650Z,61.70
2022-10-30T22:27:00.272Z,61.35
2022-10-30T22:29:26.905Z,61.32
2022-10-30T22:31:53.527Z,61.50
2022-10-30T22:34:20.127Z,61.48
2022-10-30T22:36:46.999Z,61.71
2022-10-30T22:39:14.461Z,62.01
2022-10-30T22:41:42.175Z,62.33
2022-10-30T22:44:13.793Z,61.47
2022-10-30T22:46:40.901Z,61.49
2022-10-30T22:49:07.595Z,61.90
2022-10-30T22:51:36.391Z,62.80
2022-10-30T22:54:05.314Z,62.57
2022-10-30T22:56:34.168Z,63.37
2022-10-30T22:59:02.740Z,63.77
2022-10-30T23:01:31.756Z,63.82
2022-10-30T23:04:00.259Z,63.62
2022-10-30T23:06:28.427Z,63.56
2022-10-30T23:08:56.798Z,63.42
2022-10-30T23:11:24.203Z,63.42
2022-10-30T23:13:55.008Z,63.80
2022-10-30T23:16:24.584Z,64.17
2022-10-30T23:18:51.375Z,63.84
2022-10-30T23:21:21.072Z,63.14
2022-10-30T23:23:48.493Z,63.28
2022-10-30T23:26:21.081Z,63.54
2022-10-30T23:28:50.196Z,63.62
2022-10-30T23:31:24.501Z,63.50
2022-10-30T23:33:54.383Z,64.01
2022-10-30T23:36:21.661Z,64.85
2022-10-30T23:38:53.167Z,66.51
2022-10-30T23:41:21.212Z,66.40
2022-10-30T23:43:48.316Z,68.59
2022-10-30T23:46:14.875Z,70.07
2022-10-30T23:48:41.467Z,69.32
2022-10-30T23:51:08.756Z,69.22
2022-10-30T23:53:35.715Z,70.41
2022-10-30T23:56:03.730Z,72.32
2022-10-30T23:58:30.317Z,73.02
